sensor_id;sensor_type;location;lat;lon;timestamp;pressure;altitude;pressure_sealevel;temperature;humidity
74975;BME280;68459;50.836;19.138;2023-07-13T00:02:55;98215.41;;;20.64;72.78
74975;BME280;68459;50.836;19.138;2023-07-13T00:05:59;98216.56;;;20.63;72.84
74975;BME280;68459;50.836;19.138;2023-07-13T00:09:05;98216.03;;;20.61;72.78
74975;BME280;68459;50.836;19.138;2023-07-13T00:12:23;98223.75;;;20.59;73.37
74975;BME280;68459;50.836;19.138;2023-07-13T00:15:29;98226.47;;;20.59;72.79
74975;BME280;68459;50.836;19.138;2023-07-13T00:18:33;98233.06;;;20.58;73.17
74975;BME280;68459;50.836;19.138;2023-07-13T00:21:37;98224.56;;;20.60;72.95
74975;BME280;68459;50.836;19.138;2023-07-13T00:24:43;98226.47;;;20.59;73.23
74975;BME280;68459;50.836;19.138;2023-07-13T00:27:48;98238.47;;;20.63;72.96
74975;BME280;68459;50.836;19.138;2023-07-13T00:30:52;98234.09;;;20.62;73.13
74975;BME280;68459;50.836;19.138;2023-07-13T00:33:57;98245.06;;;20.62;72.88
74975;BME280;68459;50.836;19.138;2023-07-13T00:37:02;98259.78;;;20.67;73.11
74975;BME280;68459;50.836;19.138;2023-07-13T00:40:13;98258.91;;;20.71;73.24
74975;BME280;68459;50.836;19.138;2023-07-13T00:43:20;98253.63;;;20.75;72.94
74975;BME280;68459;50.836;19.138;2023-07-13T00:46:27;98249.78;;;20.76;72.92
74975;BME280;68459;50.836;19.138;2023-07-13T00:49:33;98248.34;;;20.78;72.93
74975;BME280;68459;50.836;19.138;2023-07-13T00:52:43;98254.66;;;20.79;73.32
74975;BME280;68459;50.836;19.138;2023-07-13T00:55:50;98240.13;;;20.78;73.22
74975;BME280;68459;50.836;19.138;2023-07-13T00:58:55;98233.81;;;20.78;72.70
74975;BME280;68459;50.836;19.138;2023-07-13T01:02:01;98232.53;;;20.75;72.63
74975;BME280;68459;50.836;19.138;2023-07-13T01:05:09;98234.75;;;20.73;72.59
74975;BME280;68459;50.836;19.138;2023-07-13T01:08:13;98224.06;;;20.72;72.57
74975;BME280;68459;50.836;19.138;2023-07-13T01:11:22;98234.53;;;20.70;72.55
74975;BME280;68459;50.836;19.138;2023-07-13T01:14:26;98244.38;;;20.71;72.62
74975;BME280;68459;50.836;19.138;2023-07-13T01:17:31;98241.63;;;20.71;72.48
74975;BME280;68459;50.836;19.138;2023-07-13T01:20:37;98249.34;;;20.69;72.58
74975;BME280;68459;50.836;19.138;2023-07-13T01:23:43;98248.00;;;20.66;72.79
74975;BME280;68459;50.836;19.138;2023-07-13T01:26:47;98253.28;;;20.62;72.40
74975;BME280;68459;50.836;19.138;2023-07-13T01:29:52;98259.88;;;20.61;72.38
74975;BME280;68459;50.836;19.138;2023-07-13T01:33:04;98274.69;;;20.60;72.52
74975;BME280;68459;50.836;19.138;2023-07-13T01:36:11;98271.97;;;20.60;72.70
74975;BME280;68459;50.836;19.138;2023-07-13T01:39:17;98277.13;;;20.62;72.34
74975;BME280;68459;50.836;19.138;2023-07-13T01:42:21;98277.13;;;20.62;72.00
74975;BME280;68459;50.836;19.138;2023-07-13T01:45:43;98295.22;;;20.63;72.56
74975;BME280;68459;50.836;19.138;2023-07-13T01:48:47;98293.28;;;20.63;72.41
74975;BME280;68459;50.836;19.138;2023-07-13T01:51:51;98272.47;;;20.62;72.69
74975;BME280;68459;50.836;19.138;2023-07-13T01:54:56;98262.09;;;20.59;72.62
74975;BME280;68459;50.836;19.138;2023-07-13T01:58:01;98270.63;;;20.58;72.21
74975;BME280;68459;50.836;19.138;2023-07-13T02:01:05;98264.31;;;20.57;72.32
74975;BME280;68459;50.836;19.138;2023-07-13T02:04:09;98258.53;;;20.59;72.33
74975;BME280;68459;50.836;19.138;2023-07-13T02:07:13;98247.88;;;20.57;72.46
74975;BME280;68459;50.836;19.138;2023-07-13T02:10:18;98250.63;;;20.57;72.56
74975;BME280;68459;50.836;19.138;2023-07-13T02:13:22;98253.38;;;20.57;72.27
74975;BME280;68459;50.836;19.138;2023-07-13T02:16:26;98247.88;;;20.57;72.40
74975;BME280;68459;50.836;19.138;2023-07-13T02:19:30;98239.38;;;20.59;72.20
74975;BME280;68459;50.836;19.138;2023-07-13T02:22:34;98250.56;;;20.62;72.19
74975;BME280;68459;50.836;19.138;2023-07-13T02:25:40;98257.03;;;20.67;72.36
74975;BME280;68459;50.836;19.138;2023-07-13T02:28:44;98263.16;;;20.63;72.20
74975;BME280;68459;50.836;19.138;2023-07-13T02:31:48;98257.44;;;20.60;71.94
74975;BME280;68459;50.836;19.138;2023-07-13T02:34:52;98253.88;;;20.59;72.38
74975;BME280;68459;50.836;19.138;2023-07-13T02:37:57;98252.25;;;20.58;72.13
74975;BME280;68459;50.836;19.138;2023-07-13T02:41:02;98257.16;;;20.61;72.31
74975;BME280;68459;50.836;19.138;2023-07-13T02:44:06;98248.91;;;20.61;72.08
74975;BME280;68459;50.836;19.138;2023-07-13T02:47:10;98246.69;;;20.63;71.70
74975;BME280;68459;50.836;19.138;2023-07-13T02:50:15;98248.81;;;20.67;72.10
74975;BME280;68459;50.836;19.138;2023-07-13T02:53:19;98262.75;;;20.70;71.80
74975;BME280;68459;50.836;19.138;2023-07-13T02:56:25;98242.44;;;20.71;71.60
74975;BME280;68459;50.836;19.138;2023-07-13T02:59:30;98247.72;;;20.68;71.62
74975;BME280;68459;50.836;19.138;2023-07-13T03:02:35;98264.16;;;20.68;71.50
74975;BME280;68459;50.836;19.138;2023-07-13T03:05:41;98252.66;;;20.66;71.53
74975;BME280;68459;50.836;19.138;2023-07-13T03:08:46;98235.75;;;20.63;71.52
74975;BME280;68459;50.836;19.138;2023-07-13T03:11:54;98254.69;;;20.60;71.42
74975;BME280;68459;50.836;19.138;2023-07-13T03:15:05;98263.81;;;20.55;71.33
74975;BME280;68459;50.836;19.138;2023-07-13T03:18:13;98269.06;;;20.52;71.72
74975;BME280;68459;50.836;19.138;2023-07-13T03:21:17;98278.38;;;20.51;71.79
74975;BME280;68459;50.836;19.138;2023-07-13T03:24:21;98277.06;;;20.48;71.70
74975;BME280;68459;50.836;19.138;2023-07-13T03:27:30;98276.25;;;20.48;71.86
74975;BME280;68459;50.836;19.138;2023-07-13T03:30:35;98283.38;;;20.49;71.84
74975;BME280;68459;50.836;19.138;2023-07-13T03:33:39;98285.88;;;20.45;71.92
74975;BME280;68459;50.836;19.138;2023-07-13T03:36:44;98269.50;;;20.40;72.10
74975;BME280;68459;50.836;19.138;2023-07-13T03:39:48;98259.16;;;20.37;72.66
74975;BME280;68459;50.836;19.138;2023-07-13T03:42:56;98238.97;;;20.28;72.96
74975;BME280;68459;50.836;19.138;2023-07-13T03:46:00;98215.59;;;20.17;73.13
74975;BME280;68459;50.836;19.138;2023-07-13T03:49:05;98209.19;;;20.08;73.20
74975;BME280;68459;50.836;19.138;2023-07-13T03:52:09;98205.97;;;20.01;73.17
74975;BME280;68459;50.836;19.138;2023-07-13T03:55:12;98200.13;;;19.88;73.44
74975;BME280;68459;50.836;19.138;2023-07-13T03:58:26;98198.34;;;19.79;74.54
74975;BME280;68459;50.836;19.138;2023-07-13T04:01:38;98205.81;;;19.73;73.74
74975;BME280;68459;50.836;19.138;2023-07-13T04:04:42;98205.00;;;19.73;74.17
74975;BME280;68459;50.836;19.138;2023-07-13T04:07:46;98213.19;;;19.73;74.25
74975;BME280;68459;50.836;19.138;2023-07-13T04:10:52;98207.16;;;19.76;74.04
74975;BME280;68459;50.836;19.138;2023-07-13T04:13:59;98206.28;;;19.80;74.25
74975;BME280;68459;50.836;19.138;2023-07-13T04:17:03;98211.38;;;19.87;74.02
74975;BME280;68459;50.836;19.138;2023-07-13T04:20:08;98214.88;;;19.92;73.64
74975;BME280;68459;50.836;19.138;2023-07-13T04:23:12;98230.41;;;19.97;73.82
74975;BME280;68459;50.836;19.138;2023-07-13T04:26:16;98235.22;;;20.05;73.37
74975;BME280;68459;50.836;19.138;2023-07-13T04:29:24;98244.16;;;20.11;73.23
74975;BME280;68459;50.836;19.138;2023-07-13T04:32:28;98250.16;;;20.13;73.01
74975;BME280;68459;50.836;19.138;2023-07-13T04:35:32;98247.94;;;20.15;73.03
74975;BME280;68459;50.836;19.138;2023-07-13T04:38:36;98251.72;;;20.19;72.69
74975;BME280;68459;50.836;19.138;2023-07-13T04:41:40;98261.19;;;20.26;72.65
74975;BME280;68459;50.836;19.138;2023-07-13T04:44:48;98257.63;;;20.26;72.69
74975;BME280;68459;50.836;19.138;2023-07-13T04:47:52;98258.75;;;20.25;72.30
74975;BME280;68459;50.836;19.138;2023-07-13T04:50:57;98249.94;;;20.28;72.50
74975;BME280;68459;50.836;19.138;2023-07-13T04:54:02;98248.84;;;20.29;72.78
74975;BME280;68459;50.836;19.138;2023-07-13T04:57:07;98247.44;;;20.32;72.62
74975;BME280;68459;50.836;19.138;2023-07-13T05:00:13;98261.00;;;20.42;72.67
74975;BME280;68459;50.836;19.138;2023-07-13T05:03:18;98254.53;;;20.51;72.97
74975;BME280;68459;50.836;19.138;2023-07-13T05:06:22;98249.75;;;20.62;72.47
74975;BME280;68459;50.836;19.138;2023-07-13T05:09:26;98249.84;;;20.71;72.49
74975;BME280;68459;50.836;19.138;2023-07-13T05:12:30;98252.53;;;20.76;72.47
74975;BME280;68459;50.836;19.138;2023-07-13T05:15:35;98246.13;;;20.80;72.73
74975;BME280;68459;50.836;19.138;2023-07-13T05:18:39;98250.00;;;20.93;72.63
74975;BME280;68459;50.836;19.138;2023-07-13T05:21:44;98256.88;;;21.09;72.11
74975;BME280;68459;50.836;19.138;2023-07-13T05:24:48;98263.75;;;21.25;71.76
74975;BME280;68459;50.836;19.138;2023-07-13T05:27:52;98264.88;;;21.38;71.61
74975;BME280;68459;50.836;19.138;2023-07-13T05:30:57;98274.22;;;21.51;71.51
74975;BME280;68459;50.836;19.138;2023-07-13T05:34:01;98279.00;;;21.59;71.01
74975;BME280;68459;50.836;19.138;2023-07-13T05:37:06;98270.06;;;21.67;70.66
74975;BME280;68459;50.836;19.138;2023-07-13T05:40:10;98274.97;;;21.70;70.65
74975;BME280;68459;50.836;19.138;2023-07-13T05:43:15;98271.47;;;21.78;70.78
74975;BME280;68459;50.836;19.138;2023-07-13T05:46:20;98263.53;;;21.90;70.64
74975;BME280;68459;50.836;19.138;2023-07-13T05:49:24;98268.22;;;22.03;70.40
74975;BME280;68459;50.836;19.138;2023-07-13T05:52:28;98262.50;;;22.14;70.12
74975;BME280;68459;50.836;19.138;2023-07-13T05:55:32;98265.97;;;22.19;70.24
74975;BME280;68459;50.836;19.138;2023-07-13T05:58:37;98269.72;;;22.23;70.12
74975;BME280;68459;50.836;19.138;2023-07-13T06:01:43;98261.44;;;22.37;69.29
74975;BME280;68459;50.836;19.138;2023-07-13T06:04:47;98270.56;;;22.46;69.62
74975;BME280;68459;50.836;19.138;2023-07-13T06:07:54;98257.41;;;22.57;69.38
74975;BME280;68459;50.836;19.138;2023-07-13T06:11:02;98250.31;;;22.64;69.53
74975;BME280;68459;50.836;19.138;2023-07-13T06:14:07;98247.47;;;22.69;69.42
74975;BME280;68459;50.836;19.138;2023-07-13T06:17:12;98249.28;;;22.74;69.20
74975;BME280;68459;50.836;19.138;2023-07-13T06:20:16;98260.88;;;22.85;68.65
74975;BME280;68459;50.836;19.138;2023-07-13T06:23:20;98272.88;;;22.89;68.49
74975;BME280;68459;50.836;19.138;2023-07-13T06:26:24;98261.72;;;22.94;67.92
74975;BME280;68459;50.836;19.138;2023-07-13T06:29:28;98262.53;;;22.94;67.69
74975;BME280;68459;50.836;19.138;2023-07-13T06:32:33;98268.59;;;23.05;67.31
74975;BME280;68459;50.836;19.138;2023-07-13T06:35:41;98273.69;;;23.20;66.77
74975;BME280;68459;50.836;19.138;2023-07-13T06:38:44;98278.63;;;23.32;66.53
74975;BME280;68459;50.836;19.138;2023-07-13T06:41:48;98279.66;;;23.44;66.36
74975;BME280;68459;50.836;19.138;2023-07-13T06:44:52;98288.19;;;23.57;65.97
74975;BME280;68459;50.836;19.138;2023-07-13T06:47:58;98283.84;;;23.73;65.80
74975;BME280;68459;50.836;19.138;2023-07-13T06:51:02;98290.91;;;23.96;65.27
74975;BME280;68459;50.836;19.138;2023-07-13T06:54:07;98296.94;;;24.15;64.95
74975;BME280;68459;50.836;19.138;2023-07-13T06:57:11;98303.34;;;24.33;64.53
74975;BME280;68459;50.836;19.138;2023-07-13T07:00:16;98305.28;;;24.41;64.52
74975;BME280;68459;50.836;19.138;2023-07-13T07:03:22;98302.06;;;24.48;64.23
74975;BME280;68459;50.836;19.138;2023-07-13T07:06:26;98305.47;;;24.62;64.05
74975;BME280;68459;50.836;19.138;2023-07-13T07:09:30;98301.75;;;24.84;63.41
74975;BME280;68459;50.836;19.138;2023-07-13T07:12:34;98294.28;;;25.02;63.26
74975;BME280;68459;50.836;19.138;2023-07-13T07:15:38;98299.94;;;25.14;62.99
74975;BME280;68459;50.836;19.138;2023-07-13T07:18:43;98310.47;;;25.29;62.42
74975;BME280;68459;50.836;19.138;2023-07-13T07:21:47;98316.13;;;25.33;62.63
74975;BME280;68459;50.836;19.138;2023-07-13T07:24:51;98331.09;;;25.23;62.67
74975;BME280;68459;50.836;19.138;2023-07-13T07:27:55;98343.97;;;25.02;62.46
74975;BME280;68459;50.836;19.138;2023-07-13T07:31:02;98352.06;;;24.90;62.87
74975;BME280;68459;50.836;19.138;2023-07-13T07:34:10;98359.50;;;24.63;63.32
74975;BME280;68459;50.836;19.138;2023-07-13T07:37:14;98354.63;;;24.60;63.35
74975;BME280;68459;50.836;19.138;2023-07-13T07:40:21;98354.94;;;24.67;63.22
74975;BME280;68459;50.836;19.138;2023-07-13T07:43:28;98358.56;;;24.76;62.92
74975;BME280;68459;50.836;19.138;2023-07-13T07:46:32;98365.50;;;24.82;63.13
74975;BME280;68459;50.836;19.138;2023-07-13T07:49:37;98358.69;;;24.80;63.16
74975;BME280;68459;50.836;19.138;2023-07-13T07:52:41;98359.19;;;24.73;62.85
74975;BME280;68459;50.836;19.138;2023-07-13T07:55:46;98351.25;;;24.63;63.38
74975;BME280;68459;50.836;19.138;2023-07-13T07:58:53;98364.31;;;24.40;63.82
74975;BME280;68459;50.836;19.138;2023-07-13T08:02:00;98372.81;;;24.13;64.37
74975;BME280;68459;50.836;19.138;2023-07-13T08:05:09;98375.88;;;23.50;65.17
74975;BME280;68459;50.836;19.138;2023-07-13T08:08:17;98416.94;;;22.79;65.96
74975;BME280;68459;50.836;19.138;2023-07-13T08:11:21;98389.00;;;22.22;66.46
74975;BME280;68459;50.836;19.138;2023-07-13T08:14:28;98394.31;;;21.86;66.95
74975;BME280;68459;50.836;19.138;2023-07-13T08:17:52;98383.94;;;21.56;67.33
74975;BME280;68459;50.836;19.138;2023-07-13T08:21:03;98380.94;;;21.39;67.13
74975;BME280;68459;50.836;19.138;2023-07-13T08:24:07;98381.09;;;21.28;67.37
74975;BME280;68459;50.836;19.138;2023-07-13T08:27:11;98390.78;;;21.40;66.90
74975;BME280;68459;50.836;19.138;2023-07-13T08:30:15;98386.13;;;21.40;66.61
74975;BME280;68459;50.836;19.138;2023-07-13T08:33:20;98375.56;;;21.47;65.87
74975;BME280;68459;50.836;19.138;2023-07-13T08:36:29;98383.00;;;21.60;66.02
74975;BME280;68459;50.836;19.138;2023-07-13T08:39:33;98375.22;;;21.81;65.43
74975;BME280;68459;50.836;19.138;2023-07-13T08:42:39;98388.88;;;22.00;64.54
74975;BME280;68459;50.836;19.138;2023-07-13T08:45:47;98391.03;;;22.17;64.54
74975;BME280;68459;50.836;19.138;2023-07-13T08:48:55;98390.72;;;22.32;64.10
74975;BME280;68459;50.836;19.138;2023-07-13T08:52:04;98388.56;;;22.43;63.17
74975;BME280;68459;50.836;19.138;2023-07-13T08:55:13;98396.28;;;22.40;62.92
74975;BME280;68459;50.836;19.138;2023-07-13T08:58:20;98399.06;;;22.27;63.06
74975;BME280;68459;50.836;19.138;2023-07-13T09:01:29;98401.00;;;22.13;63.26
74975;BME280;68459;50.836;19.138;2023-07-13T09:04:42;98410.25;;;22.17;63.09
74975;BME280;68459;50.836;19.138;2023-07-13T09:08:01;98416.97;;;22.11;62.78
74975;BME280;68459;50.836;19.138;2023-07-13T09:11:21;98413.66;;;21.81;63.22
74975;BME280;68459;50.836;19.138;2023-07-13T09:14:37;98428.47;;;21.66;63.44
74975;BME280;68459;50.836;19.138;2023-07-13T09:17:49;98442.00;;;21.44;63.89
74975;BME280;68459;50.836;19.138;2023-07-13T09:20:56;98448.78;;;21.33;64.00
74975;BME280;68459;50.836;19.138;2023-07-13T09:24:27;98460.34;;;21.11;63.64
74975;BME280;68459;50.836;19.138;2023-07-13T09:27:36;98452.72;;;20.89;64.48
74975;BME280;68459;50.836;19.138;2023-07-13T09:30:47;98452.78;;;20.84;63.67
74975;BME280;68459;50.836;19.138;2023-07-13T09:33:55;98455.19;;;20.67;64.33
74975;BME280;68459;50.836;19.138;2023-07-13T09:37:00;98462.41;;;20.39;64.66
74975;BME280;68459;50.836;19.138;2023-07-13T09:40:12;98446.75;;;20.16;65.08
74975;BME280;68459;50.836;19.138;2023-07-13T09:43:21;98447.13;;;20.09;65.15
74975;BME280;68459;50.836;19.138;2023-07-13T09:46:25;98450.41;;;19.82;65.63
74975;BME280;68459;50.836;19.138;2023-07-13T09:49:33;98456.63;;;19.59;66.08
74975;BME280;68459;50.836;19.138;2023-07-13T09:52:41;98464.44;;;19.37;66.65
74975;BME280;68459;50.836;19.138;2023-07-13T09:55:48;98475.56;;;19.11;67.45
74975;BME280;68459;50.836;19.138;2023-07-13T09:58:56;98500.88;;;18.83;67.68
74975;BME280;68459;50.836;19.138;2023-07-13T10:02:00;98509.16;;;18.52;68.60
74975;BME280;68459;50.836;19.138;2023-07-13T10:05:09;98516.34;;;18.28;69.21
74975;BME280;68459;50.836;19.138;2023-07-13T10:08:28;98514.22;;;18.10;71.52
74975;BME280;68459;50.836;19.138;2023-07-13T10:11:38;98508.78;;;17.95;70.29
74975;BME280;68459;50.836;19.138;2023-07-13T10:14:44;98498.66;;;17.90;70.33
74975;BME280;68459;50.836;19.138;2023-07-13T10:17:49;98497.31;;;17.88;70.42
74975;BME280;68459;50.836;19.138;2023-07-13T10:21:00;98483.41;;;17.84;70.74
74975;BME280;68459;50.836;19.138;2023-07-13T10:24:37;98483.13;;;17.80;70.81
74975;BME280;68459;50.836;19.138;2023-07-13T10:27:43;98490.22;;;17.82;70.92
74975;BME280;68459;50.836;19.138;2023-07-13T10:30:48;98492.38;;;17.85;70.79
74975;BME280;68459;50.836;19.138;2023-07-13T10:33:53;98495.13;;;17.90;70.61
74975;BME280;68459;50.836;19.138;2023-07-13T10:36:57;98496.22;;;17.94;70.81
74975;BME280;68459;50.836;19.138;2023-07-13T10:40:02;98489.09;;;17.98;70.56
74975;BME280;68459;50.836;19.138;2023-07-13T10:43:22;98484.72;;;18.02;71.38
74975;BME280;68459;50.836;19.138;2023-07-13T10:46:30;98486.38;;;18.08;70.78
74975;BME280;68459;50.836;19.138;2023-07-13T10:49:35;98479.00;;;18.08;70.83
74975;BME280;68459;50.836;19.138;2023-07-13T10:52:46;98481.16;;;18.11;70.86
74975;BME280;68459;50.836;19.138;2023-07-13T10:56:00;98470.50;;;18.15;71.44
74975;BME280;68459;50.836;19.138;2023-07-13T10:59:14;98475.97;;;18.20;71.09
74975;BME280;68459;50.836;19.138;2023-07-13T11:02:26;98464.47;;;18.28;71.05
74975;BME280;68459;50.836;19.138;2023-07-13T11:05:33;98466.91;;;18.35;70.86
74975;BME280;68459;50.836;19.138;2023-07-13T11:08:38;98459.75;;;18.44;70.89
74975;BME280;68459;50.836;19.138;2023-07-13T11:11:56;98458.94;;;18.48;71.01
74975;BME280;68459;50.836;19.138;2023-07-13T11:15:09;98455.34;;;18.53;71.23
74975;BME280;68459;50.836;19.138;2023-07-13T11:18:22;98455.63;;;18.51;71.19
74975;BME280;68459;50.836;19.138;2023-07-13T11:21:27;98437.59;;;18.56;70.88
74975;BME280;68459;50.836;19.138;2023-07-13T11:24:52;98427.22;;;18.63;71.74
74975;BME280;68459;50.836;19.138;2023-07-13T11:28:24;98426.06;;;18.69;71.69
74975;BME280;68459;50.836;19.138;2023-07-13T11:31:33;98431.25;;;18.75;71.11
74975;BME280;68459;50.836;19.138;2023-07-13T11:34:38;98421.63;;;18.83;70.96
74975;BME280;68459;50.836;19.138;2023-07-13T11:37:44;98426.44;;;18.96;70.93
74975;BME280;68459;50.836;19.138;2023-07-13T11:40:53;98433.19;;;19.09;71.12
74975;BME280;68459;50.836;19.138;2023-07-13T11:44:06;98441.09;;;19.15;70.91
74975;BME280;68459;50.836;19.138;2023-07-13T11:47:19;98440.97;;;19.31;70.93
74975;BME280;68459;50.836;19.138;2023-07-13T11:50:24;98443.34;;;19.42;70.26
74975;BME280;68459;50.836;19.138;2023-07-13T11:53:36;98443.03;;;19.49;70.56
74975;BME280;68459;50.836;19.138;2023-07-13T11:56:43;98440.16;;;19.64;70.06
74975;BME280;68459;50.836;19.138;2023-07-13T11:59:51;98439.50;;;19.77;69.73
74975;BME280;68459;50.836;19.138;2023-07-13T12:02:59;98455.78;;;19.92;69.63
74975;BME280;68459;50.836;19.138;2023-07-13T12:06:25;98468.94;;;20.14;69.19
74975;BME280;68459;50.836;19.138;2023-07-13T12:09:32;98489.59;;;20.31;69.14
74975;BME280;68459;50.836;19.138;2023-07-13T12:12:46;98505.78;;;20.27;68.89
74975;BME280;68459;50.836;19.138;2023-07-13T12:15:51;98506.88;;;20.26;69.00
74975;BME280;68459;50.836;19.138;2023-07-13T12:18:58;98507.53;;;20.18;69.02
74975;BME280;68459;50.836;19.138;2023-07-13T12:22:03;98509.75;;;20.16;68.87
74975;BME280;68459;50.836;19.138;2023-07-13T12:25:11;98518.53;;;20.13;68.87
74975;BME280;68459;50.836;19.138;2023-07-13T12:28:22;98518.88;;;20.06;68.64
74975;BME280;68459;50.836;19.138;2023-07-13T12:31:35;98525.31;;;19.91;68.96
74975;BME280;68459;50.836;19.138;2023-07-13T12:34:52;98521.47;;;19.92;69.89
74975;BME280;68459;50.836;19.138;2023-07-13T12:37:58;98503.41;;;19.91;68.99
74975;BME280;68459;50.836;19.138;2023-07-13T12:41:03;98496.34;;;19.85;69.19
74975;BME280;68459;50.836;19.138;2023-07-13T12:44:11;98499.06;;;19.85;69.36
74975;BME280;68459;50.836;19.138;2023-07-13T12:47:16;98519.31;;;19.89;69.26
74975;BME280;68459;50.836;19.138;2023-07-13T12:50:27;98514.94;;;19.88;69.61
74975;BME280;68459;50.836;19.138;2023-07-13T12:53:38;98526.66;;;19.94;69.45
74975;BME280;68459;50.836;19.138;2023-07-13T12:56:43;98527.38;;;20.05;69.05
74975;BME280;68459;50.836;19.138;2023-07-13T12:59:52;98516.91;;;20.12;69.16
74975;BME280;68459;50.836;19.138;2023-07-13T13:02:57;98516.09;;;20.40;68.49
74975;BME280;68459;50.836;19.138;2023-07-13T13:06:26;98521.91;;;20.81;67.76
74975;BME280;68459;50.836;19.138;2023-07-13T13:09:31;98523.03;;;21.23;67.15
74975;BME280;68459;50.836;19.138;2023-07-13T13:12:36;98521.72;;;21.72;66.56
74975;BME280;68459;50.836;19.138;2023-07-13T13:15:39;98522.94;;;22.30;64.63
74975;BME280;68459;50.836;19.138;2023-07-13T13:18:43;98521.53;;;22.60;63.56
74975;BME280;68459;50.836;19.138;2023-07-13T13:21:48;98527.72;;;22.66;63.62
74975;BME280;68459;50.836;19.138;2023-07-13T13:24:55;98532.00;;;22.58;63.93
74975;BME280;68459;50.836;19.138;2023-07-13T13:27:58;98529.78;;;22.60;63.95
74975;BME280;68459;50.836;19.138;2023-07-13T13:31:02;98530.16;;;22.54;63.98
74975;BME280;68459;50.836;19.138;2023-07-13T13:34:08;98536.66;;;22.30;64.23
74975;BME280;68459;50.836;19.138;2023-07-13T13:37:18;98548.94;;;22.06;64.73
74975;BME280;68459;50.836;19.138;2023-07-13T13:40:23;98551.03;;;21.76;65.19
74975;BME280;68459;50.836;19.138;2023-07-13T13:43:29;98562.00;;;21.57;65.90
74975;BME280;68459;50.836;19.138;2023-07-13T13:46:32;98559.94;;;21.49;66.11
74975;BME280;68459;50.836;19.138;2023-07-13T13:49:36;98557.50;;;21.48;66.10
74975;BME280;68459;50.836;19.138;2023-07-13T13:52:42;98561.44;;;21.60;65.98
74975;BME280;68459;50.836;19.138;2023-07-13T13:55:46;98558.94;;;21.96;65.65
74975;BME280;68459;50.836;19.138;2023-07-13T13:58:49;98556.84;;;22.53;64.57
74975;BME280;68459;50.836;19.138;2023-07-13T14:01:53;98573.00;;;23.01;63.48
74975;BME280;68459;50.836;19.138;2023-07-13T14:04:58;98567.38;;;23.69;61.95
74975;BME280;68459;50.836;19.138;2023-07-13T14:08:09;98559.81;;;25.47;60.53
74975;BME280;68459;50.836;19.138;2023-07-13T14:11:18;98558.84;;;27.64;55.14
74975;BME280;68459;50.836;19.138;2023-07-13T14:14:24;98563.03;;;29.66;50.59
74975;BME280;68459;50.836;19.138;2023-07-13T14:17:29;98573.31;;;31.25;47.60
74975;BME280;68459;50.836;19.138;2023-07-13T14:20:33;98576.31;;;31.51;46.32
74975;BME280;68459;50.836;19.138;2023-07-13T14:23:39;98569.56;;;31.68;45.89
74975;BME280;68459;50.836;19.138;2023-07-13T14:26:45;98574.31;;;32.86;43.42
74975;BME280;68459;50.836;19.138;2023-07-13T14:29:49;98579.63;;;34.30;42.30
74975;BME280;68459;50.836;19.138;2023-07-13T14:32:53;98570.97;;;35.96;39.13
74975;BME280;68459;50.836;19.138;2023-07-13T14:35:57;98572.41;;;36.66;37.87
74975;BME280;68459;50.836;19.138;2023-07-13T14:39:11;98584.38;;;36.28;33.81
74975;BME280;68459;50.836;19.138;2023-07-13T14:42:16;98596.75;;;34.62;39.64
74975;BME280;68459;50.836;19.138;2023-07-13T14:45:20;98593.47;;;34.90;40.15
74975;BME280;68459;50.836;19.138;2023-07-13T14:48:24;98583.88;;;36.08;37.86
74975;BME280;68459;50.836;19.138;2023-07-13T14:51:29;98583.00;;;35.97;37.49
74975;BME280;68459;50.836;19.138;2023-07-13T14:54:35;98563.63;;;35.16;38.00
74975;BME280;68459;50.836;19.138;2023-07-13T14:57:43;98561.84;;;34.53;39.43
74975;BME280;68459;50.836;19.138;2023-07-13T15:00:47;98554.56;;;35.33;38.08
74975;BME280;68459;50.836;19.138;2023-07-13T15:03:52;98550.06;;;35.21;38.03
74975;BME280;68459;50.836;19.138;2023-07-13T15:06:58;98547.78;;;35.38;37.41
74975;BME280;68459;50.836;19.138;2023-07-13T15:10:12;98541.13;;;36.79;33.28
74975;BME280;68459;50.836;19.138;2023-07-13T15:13:19;98538.44;;;35.81;35.65
74975;BME280;68459;50.836;19.138;2023-07-13T15:16:25;98548.53;;;33.76;38.82
74975;BME280;68459;50.836;19.138;2023-07-13T15:19:30;98546.88;;;34.38;38.62
74975;BME280;68459;50.836;19.138;2023-07-13T15:22:35;98548.69;;;36.50;35.24
74975;BME280;68459;50.836;19.138;2023-07-13T15:25:41;98552.16;;;38.17;32.61
74975;BME280;68459;50.836;19.138;2023-07-13T15:28:46;98559.81;;;38.82;30.52
74975;BME280;68459;50.836;19.138;2023-07-13T15:31:50;98552.69;;;37.73;32.35
74975;BME280;68459;50.836;19.138;2023-07-13T15:34:54;98551.34;;;38.82;31.52
74975;BME280;68459;50.836;19.138;2023-07-13T15:37:58;98546.34;;;39.83;29.84
74975;BME280;68459;50.836;19.138;2023-07-13T15:41:12;98552.78;;;39.87;29.17
74975;BME280;68459;50.836;19.138;2023-07-13T15:44:23;98545.19;;;38.36;31.06
74975;BME280;68459;50.836;19.138;2023-07-13T15:47:30;98537.09;;;37.29;32.29
74975;BME280;68459;50.836;19.138;2023-07-13T15:50:43;98532.28;;;36.98;32.65
74975;BME280;68459;50.836;19.138;2023-07-13T15:53:48;98547.56;;;36.72;32.78
74975;BME280;68459;50.836;19.138;2023-07-13T15:56:55;98542.53;;;35.32;34.14
74975;BME280;68459;50.836;19.138;2023-07-13T16:00:00;98552.38;;;36.75;32.67
74975;BME280;68459;50.836;19.138;2023-07-13T16:03:14;98534.88;;;38.08;30.84
74975;BME280;68459;50.836;19.138;2023-07-13T16:06:22;98539.56;;;38.95;29.40
74975;BME280;68459;50.836;19.138;2023-07-13T16:09:29;98546.19;;;39.63;28.78
74975;BME280;68459;50.836;19.138;2023-07-13T16:12:34;98557.78;;;39.72;27.87
74975;BME280;68459;50.836;19.138;2023-07-13T16:15:41;98567.69;;;39.91;28.15
74975;BME280;68459;50.836;19.138;2023-07-13T16:18:46;98572.41;;;40.01;26.95